Time;durP1;ratioP1;P1;durP2;ratioP2;P2;SDS_P1;SDS_P2;PMS_P1;PMS_P2;Temp;Humidity;BMP_temperature;BMP_pressure;BME280_temperature;BME280_humidity;BME280_pressure;Samples;Min_cycle;Max_cycle;Signal;HPM_P1;HPM_P2
2023/07/03 00:00:18;;;;;;;11.90;10.40;;;;;;;22.06;73.63;98877.46;109295;1254;73961;-77
2023/07/03 00:02:52;;;;;;;12.10;10.80;;;;;;;22.15;73.62;98882.09;109367;1253;68918;-82
2023/07/03 00:05:21;;;;;;;12.10;10.90;;;;;;;22.16;73.46;98887.29;108163;1254;73286;-82
2023/07/03 00:07:49;;;;;;;11.10;10.10;;;;;;;22.16;73.32;98886.91;109035;1254;60294;-85
2023/07/03 00:10:43;;;;;;;12.20;11.00;;;;;;;22.15;73.33;98886.70;108700;1258;59246;31
2023/07/03 00:13:15;;;;;;;12.20;11.10;;;;;;;22.12;73.43;98883.59;108151;1264;72578;-85
2023/07/03 00:15:44;;;;;;;12.30;10.20;;;;;;;22.08;73.70;98882.77;108669;1264;70349;-83
2023/07/03 00:18:13;;;;;;;11.60;10.50;;;;;;;22.15;73.54;98883.83;108526;1264;71386;-83
2023/07/03 00:20:41;;;;;;;12.40;10.00;;;;;;;22.20;73.35;98887.59;108348;1264;60544;-85
2023/07/03 00:23:10;;;;;;;11.90;10.90;;;;;;;22.17;73.40;98892.31;106858;1264;60380;-82
2023/07/03 00:25:38;;;;;;;12.20;11.10;;;;;;;22.11;73.66;98901.01;108230;1269;72676;-81
2023/07/03 00:28:06;;;;;;;13.40;12.00;;;;;;;22.03;73.93;98904.66;108741;1264;68921;-79
2023/07/03 00:30:34;;;;;;;12.70;10.60;;;;;;;21.96;74.27;98907.48;108748;1264;71439;-82
2023/07/03 00:33:01;;;;;;;12.10;10.90;;;;;;;21.96;74.40;98910.24;108610;1264;60455;-81
2023/07/03 00:35:29;;;;;;;11.90;10.60;;;;;;;21.98;74.29;98913.95;108006;1264;60333;-79
2023/07/03 00:37:56;;;;;;;12.00;11.00;;;;;;;21.96;74.50;98914.73;107951;1264;72909;-78
2023/07/03 00:40:24;;;;;;;12.50;11.10;;;;;;;21.95;74.32;98917.33;107692;1269;71097;-79
2023/07/03 00:42:53;;;;;;;13.30;12.00;;;;;;;21.93;74.30;98920.40;107789;1264;72621;-76
2023/07/03 00:45:21;;;;;;;12.30;11.10;;;;;;;21.92;74.33;98919.41;108721;1264;61190;-80
2023/07/03 00:47:49;;;;;;;11.30;10.30;;;;;;;21.92;74.36;98923.04;108427;1264;59291;-75
2023/07/03 00:50:16;;;;;;;11.80;10.70;;;;;;;21.97;74.41;98928.91;107935;1264;72768;-76
2023/07/03 00:52:44;;;;;;;12.20;10.90;;;;;;;22.01;74.14;98932.55;108580;1264;69191;-81
2023/07/03 00:55:13;;;;;;;12.30;11.10;;;;;;;22.01;74.36;98934.77;108117;1264;71136;-80
2023/07/03 00:57:41;;;;;;;12.20;11.00;;;;;;;22.03;74.21;98933.38;106165;1267;60468;-83
2023/07/03 01:00:09;;;;;;;12.70;11.50;;;;;;;22.04;74.01;98935.02;106079;1267;60497;-80
2023/07/03 01:02:58;;;;;;;12.40;11.20;;;;;;;22.02;74.17;98936.18;105367;1265;72719;-78
2023/07/03 01:05:30;;;;;;;11.50;10.40;;;;;;;21.98;74.42;98939.78;105467;1264;68720;-82
2023/07/03 01:08:00;;;;;;;12.10;11.00;;;;;;;21.98;74.59;98945.52;105891;1267;72809;-86
2023/07/03 01:10:28;;;;;;;12.00;10.90;;;;;;;21.92;74.70;98946.34;105945;1264;61593;-85
2023/07/03 01:13:01;;;;;;;12.10;10.80;;;;;;;21.82;75.05;98950.62;107653;1263;60289;-86
2023/07/03 01:15:31;;;;;;;13.40;11.50;;;;;;;21.73;75.32;98948.23;107340;1268;74622;-83
2023/07/03 01:18:00;;;;;;;12.00;10.70;;;;;;;21.66;75.71;98952.94;105565;1266;68847;-82
2023/07/03 01:20:31;;;;;;;12.50;11.00;;;;;;;21.65;75.91;98956.52;105349;1264;71290;-82
2023/07/03 01:23:11;;;;;;;13.60;11.50;;;;;;;21.67;75.86;98953.17;105496;1263;60543;-81
2023/07/03 01:25:39;;;;;;;11.40;10.40;;;;;;;21.62;76.08;98953.56;105431;1267;60359;-82
2023/07/03 01:28:08;;;;;;;11.60;10.50;;;;;;;21.56;76.34;98954.08;105670;1267;73898;-84
2023/07/03 01:30:36;;;;;;;11.50;10.60;;;;;;;21.52;76.63;98953.77;105591;1264;70007;-81
2023/07/03 01:33:03;;;;;;;12.20;10.90;;;;;;;21.47;76.83;98959.13;105511;1264;71484;-82
2023/07/03 01:35:31;;;;;;;11.40;10.20;;;;;;;21.51;76.79;98962.56;105840;1270;61743;-82
2023/07/03 01:38:00;;;;;;;12.60;11.20;;;;;;;21.56;76.70;98967.80;106019;1264;60494;-82
2023/07/03 01:40:28;;;;;;;12.00;10.90;;;;;;;21.54;76.79;98967.02;106684;1262;74028;-86
2023/07/03 01:42:56;;;;;;;12.60;11.30;;;;;;;21.52;76.91;98971.50;108833;1264;69614;-83
2023/07/03 01:45:25;;;;;;;11.90;10.90;;;;;;;21.52;76.83;98972.27;107567;1262;71385;-82
2023/07/03 01:47:53;;;;;;;12.80;11.60;;;;;;;21.58;76.61;98973.54;105512;1268;60501;-81
2023/07/03 01:50:23;;;;;;;12.80;11.60;;;;;;;21.61;76.60;98969.89;105534;1268;60385;-79
2023/07/03 01:52:57;;;;;;;12.60;10.10;;;;;;;21.68;76.46;98972.32;105499;1269;72885;-80
2023/07/03 01:55:34;;;;;;;11.90;10.50;;;;;;;21.72;76.50;98968.23;105570;1264;70040;-82
2023/07/03 01:58:14;;;;;;;12.10;11.00;;;;;;;21.69;76.51;98968.38;105704;1267;71585;-80
2023/07/03 02:00:48;;;;;;;12.60;11.40;;;;;;;21.64;76.72;98977.48;105607;1264;60736;-80
2023/07/03 02:03:23;;;;;;;12.00;11.00;;;;;;;21.57;76.81;98979.54;106127;1263;59194;-80
2023/07/03 02:05:51;;;;;;;13.40;11.50;;;;;;;21.52;76.95;98975.17;106177;1263;73906;-78
2023/07/03 02:08:20;;;;;;;11.50;10.10;;;;;;;21.57;76.84;98977.55;106062;1264;69363;-78
2023/07/03 02:10:47;;;;;;;11.40;10.40;;;;;;;21.67;76.67;98983.56;107068;1264;72357;-78
2023/07/03 02:13:15;;;;;;;12.60;11.00;;;;;;;21.70;76.60;98984.38;108480;1264;58849;-79
2023/07/03 02:15:43;;;;;;;15.00;13.60;;;;;;;21.70;76.54;98989.58;106970;1264;60461;-79
2023/07/03 02:18:17;;;;;;;16.00;13.60;;;;;;;21.70;76.66;98989.41;105981;1268;72979;-78
2023/07/03 02:20:46;;;;;;;14.10;12.80;;;;;;;21.69;76.64;98989.23;105521;1264;68869;-78
2023/07/03 02:23:13;;;;;;;13.20;11.90;;;;;;;21.68;76.75;98993.23;105444;1267;72749;-83
2023/07/03 02:25:43;;;;;;;14.20;12.80;;;;;;;21.72;76.78;98995.86;106128;1263;60528;-83
2023/07/03 02:28:12;;;;;;;12.10;10.90;;;;;;;21.77;76.59;98998.75;105973;1262;60505;-81
2023/07/03 02:30:39;;;;;;;12.50;11.30;;;;;;;21.78;76.69;98998.29;106043;1264;72912;-82
2023/07/03 02:33:10;;;;;;;13.20;11.90;;;;;;;21.82;76.70;99002.68;105998;1267;68080;-85
2023/07/03 02:35:41;;;;;;;13.60;11.40;;;;;;;21.85;76.60;99007.79;107330;1264;72793;-84
2023/07/03 02:38:11;;;;;;;13.50;11.80;;;;;;;21.88;76.53;99007.31;107679;1263;60550;-84
2023/07/03 02:40:39;;;;;;;14.90;12.90;;;;;;;21.90;76.50;99013.83;106810;1269;60443;-82
2023/07/03 02:43:08;;;;;;;12.40;11.10;;;;;;;21.96;76.22;99019.16;108071;1264;72775;-85
2023/07/03 02:45:40;;;;;;;12.40;11.20;;;;;;;22.01;75.94;99026.39;108134;1262;69201;-80
2023/07/03 02:48:09;;;;;;;13.60;12.00;;;;;;;22.06;75.94;99028.14;107365;1263;71075;-80
2023/07/03 02:50:40;;;;;;;12.10;11.00;;;;;;;22.10;75.83;99030.50;107092;1264;59175;-78
2023/07/03 02:53:09;;;;;;;13.60;12.30;;;;;;;22.13;75.65;99029.65;106952;1262;60352;-76
2023/07/03 02:55:37;;;;;;;15.90;12.40;;;;;;;22.16;75.52;99031.19;106374;1264;74130;-77
2023/07/03 02:58:05;;;;;;;13.10;11.90;;;;;;;22.19;75.31;99028.73;105364;1265;69471;-79
2023/07/03 03:00:35;;;;;;;12.90;11.60;;;;;;;22.26;74.97;99020.34;105912;1264;71285;-82
2023/07/03 03:03:03;;;;;;;12.00;10.90;;;;;;;22.32;74.69;99022.16;105800;1270;60580;-81
2023/07/03 03:05:32;;;;;;;13.60;12.30;;;;;;;22.34;74.45;99020.98;107474;1262;60528;-77
2023/07/03 03:07:59;;;;;;;13.60;12.30;;;;;;;22.34;74.37;99024.94;107890;1263;74137;-78
2023/07/03 03:10:27;;;;;;;14.60;13.10;;;;;;;22.35;74.11;99027.48;108635;1264;68842;-79
2023/07/03 03:12:54;;;;;;;13.60;12.20;;;;;;;22.36;73.78;99026.90;108846;1262;70293;-79
2023/07/03 03:15:22;;;;;;;14.70;12.50;;;;;;;22.39;73.64;99030.27;108038;1263;60666;-79
2023/07/03 03:17:50;;;;;;;14.40;12.20;;;;;;;22.46;73.43;99030.63;106949;1262;60366;-86
2023/07/03 03:20:18;;;;;;;14.40;12.90;;;;;;;22.51;73.25;99032.97;106178;1262;73385;-83
2023/07/03 03:22:50;;;;;;;13.90;12.30;;;;;;;22.51;72.99;99035.84;107866;1262;68913;-79
2023/07/03 03:25:17;;;;;;;13.40;12.00;;;;;;;22.51;72.98;99043.96;107905;1264;72693;-81
2023/07/03 03:27:45;;;;;;;23.60;21.30;;;;;;;22.50;72.94;99041.80;107698;1263;59365;-83
2023/07/03 03:30:13;;;;;;;14.00;12.60;;;;;;;22.52;72.74;99044.52;105607;1263;60641;-84
2023/07/03 03:32:42;;;;;;;14.30;12.90;;;;;;;22.52;72.31;99053.05;106303;1262;73329;-83
2023/07/03 03:35:10;;;;;;;13.30;11.90;;;;;;;22.51;72.20;99055.27;107270;1267;70630;-86
2023/07/03 03:37:38;;;;;;;13.80;12.20;;;;;;;22.50;72.12;99063.55;106059;1264;71390;-79
2023/07/03 03:40:08;;;;;;;13.50;12.20;;;;;;;22.47;71.95;99067.21;105299;1270;60559;-80
2023/07/03 03:42:36;;;;;;;12.40;11.20;;;;;;;22.50;71.97;99065.39;107629;1263;60472;-80
2023/07/03 03:45:04;;;;;;;15.40;11.90;;;;;;;22.51;72.02;99063.02;108031;1262;72847;-87
2023/07/03 03:47:33;;;;;;;13.10;11.90;;;;;;;22.49;72.06;99056.62;106674;1262;68777;-82
2023/07/03 03:50:01;;;;;;;14.20;12.90;;;;;;;22.46;72.31;99051.83;105779;1262;71857;-82
2023/07/03 03:52:29;;;;;;;13.60;12.30;;;;;;;22.40;72.51;99050.40;106415;1264;60464;-81
2023/07/03 03:54:58;;;;;;;14.00;12.70;;;;;;;22.36;72.58;99054.49;106258;1266;60528;-85
2023/07/03 03:57:26;;;;;;;13.10;11.30;;;;;;;22.34;72.71;99062.17;106469;1264;72613;-85
2023/07/03 03:59:54;;;;;;;14.20;12.20;;;;;;;22.33;72.61;99071.90;106068;1263;68821;-83
2023/07/03 04:02:22;;;;;;;12.00;10.80;;;;;;;22.40;72.48;99078.81;105643;1267;71940;-83
2023/07/03 04:04:50;;;;;;;12.80;10.70;;;;;;;22.48;72.11;99082.09;105575;1266;60489;-85
2023/07/03 04:07:17;;;;;;;13.70;11.20;;;;;;;22.49;72.01;99081.73;105763;1264;60807;-87
2023/07/03 04:09:45;;;;;;;11.80;10.60;;;;;;;22.52;71.57;99077.52;105820;1262;73951;-86
2023/07/03 04:12:13;;;;;;;12.90;11.70;;;;;;;22.54;71.36;99079.80;107250;1262;68997;-84
2023/07/03 04:14:42;;;;;;;12.80;11.40;;;;;;;22.58;71.00;99079.50;108458;1262;70996;-85
2023/07/03 04:17:10;;;;;;;12.20;11.00;;;;;;;22.63;70.16;99083.26;106598;1262;60887;-81
2023/07/03 04:19:37;;;;;;;11.80;10.70;;;;;;;22.66;69.75;99090.16;107242;1262;60434;-83
2023/07/03 04:22:05;;;;;;;11.70;10.70;;;;;;;22.70;69.31;99087.63;108660;1262;72605;-84
2023/07/03 04:24:34;;;;;;;12.20;10.60;;;;;;;22.72;69.10;99090.61;108515;1262;71520;-82
2023/07/03 04:27:03;;;;;;;12.40;11.30;;;;;;;22.75;68.87;99094.21;105904;1262;71410;-86
2023/07/03 04:29:30;;;;;;;11.80;10.60;;;;;;;22.77;68.67;99096.98;106406;1265;60473;-84
2023/07/03 04:31:58;;;;;;;12.90;11.50;;;;;;;22.78;68.55;99100.01;106600;1262;60289;-82
2023/07/03 04:34:25;;;;;;;12.50;11.30;;;;;;;22.78;68.43;99104.50;105605;1270;73846;-83
2023/07/03 04:36:53;;;;;;;12.50;11.40;;;;;;;22.81;68.55;99106.25;105824;1263;71445;-81
2023/07/03 04:39:20;;;;;;;11.10;10.00;;;;;;;22.82;68.44;99106.09;106534;1262;71425;-82
2023/07/03 04:41:48;;;;;;;12.00;10.80;;;;;;;22.83;68.21;99109.23;106619;1262;60309;-80
2023/07/03 04:44:16;;;;;;;11.50;10.40;;;;;;;22.87;68.02;99120.09;108610;1263;58769;-81
2023/07/03 04:46:45;;;;;;;11.50;10.50;;;;;;;22.90;67.89;99127.46;106540;1264;74180;-85
2023/07/03 04:49:13;;;;;;;12.00;10.80;;;;;;;22.93;67.62;99133.00;105696;1262;69171;-81
2023/07/03 04:51:41;;;;;;;11.50;10.30;;;;;;;22.93;67.75;99136.80;105692;1264;71797;-78
2023/07/03 04:54:09;;;;;;;11.30;10.30;;;;;;;22.95;68.02;99141.84;105389;1264;60549;-80
2023/07/03 04:56:37;;;;;;;11.40;10.40;;;;;;;22.98;68.07;99146.46;105516;1262;63051;-79
2023/07/03 04:59:04;;;;;;;11.40;10.30;;;;;;;23.02;67.92;99145.41;105544;1263;72600;-82
2023/07/03 05:01:32;;;;;;;12.50;11.10;;;;;;;23.09;67.75;99149.13;105603;1263;70817;-82
2023/07/03 05:03:59;;;;;;;11.90;10.90;;;;;;;23.16;67.66;99150.62;105726;1263;71820;-82
2023/07/03 05:06:27;;;;;;;11.90;10.80;;;;;;;23.22;67.48;99156.45;105767;1262;61997;-83
2023/07/03 05:08:55;;;;;;;12.00;10.90;;;;;;;23.25;67.21;99154.67;106377;1262;60489;-80
2023/07/03 05:11:23;;;;;;;12.80;10.70;;;;;;;23.26;67.35;99157.27;107771;1262;72848;-83
2023/07/03 05:13:51;;;;;;;13.70;11.70;;;;;;;23.27;67.13;99156.35;108759;1262;68815;-85
2023/07/03 05:16:19;;;;;;;11.80;10.70;;;;;;;23.28;66.84;99161.17;107398;1262;72814;-84
2023/07/03 05:18:47;;;;;;;12.10;10.80;;;;;;;23.30;66.72;99162.98;107437;1262;60327;-82
2023/07/03 05:21:14;;;;;;;11.20;10.20;;;;;;;23.31;66.29;99166.41;108182;1262;60129;-82
2023/07/03 05:23:42;;;;;;;10.20;9.00;;;;;;;23.30;66.11;99164.02;108252;1262;74970;-77
2023/07/03 05:26:09;;;;;;;11.10;10.10;;;;;;;23.37;66.06;99168.30;107699;1262;69066;-81
2023/07/03 05:28:37;;;;;;;12.20;9.50;;;;;;;23.46;65.76;99164.82;107989;1264;60540;-82
2023/07/03 05:31:04;;;;;;;10.80;9.70;;;;;;;23.52;65.55;99164.50;107070;1262;60515;-80
2023/07/03 05:33:32;;;;;;;9.80;8.40;;;;;;;23.60;65.57;99167.13;106058;1263;60345;-85
2023/07/03 05:36:01;;;;;;;10.20;9.30;;;;;;;23.70;64.91;99169.42;106601;1262;72623;-85
2023/07/03 05:38:28;;;;;;;11.00;9.90;;;;;;;23.80;64.75;99172.50;106001;1262;69217;-83
2023/07/03 05:40:56;;;;;;;10.10;9.10;;;;;;;23.88;64.31;99175.67;108319;1262;71084;-85
2023/07/03 05:43:25;;;;;;;10.40;8.70;;;;;;;23.92;64.01;99181.69;108623;1263;58592;-84
2023/07/03 05:45:56;;;;;;;11.70;9.70;;;;;;;23.95;63.89;99182.23;106658;1263;60316;-85
2023/07/03 05:48:23;;;;;;;11.30;9.00;;;;;;;24.01;63.76;99190.27;105875;1263;74259;-83
2023/07/03 05:50:51;;;;;;;9.90;9.10;;;;;;;24.09;63.62;99192.55;106707;1262;69072;-83
2023/07/03 05:53:19;;;;;;;12.90;9.80;;;;;;;24.17;63.33;99186.37;105552;1264;73135;-83
2023/07/03 05:55:56;;;;;;;10.50;9.60;;;;;;;24.27;63.38;99185.98;105574;1262;60563;-84
2023/07/03 05:58:25;;;;;;;11.10;9.80;;;;;;;24.40;62.82;99187.39;108133;1261;60628;-83
2023/07/03 06:00:53;;;;;;;10.20;9.00;;;;;;;24.53;62.61;99188.81;107095;1262;72625;-78
2023/07/03 06:03:20;;;;;;;12.10;10.00;;;;;;;24.66;62.02;99191.58;105288;1264;68800;-77
2023/07/03 06:05:48;;;;;;;10.50;9.40;;;;;;;24.78;61.80;99193.13;105443;1267;71371;-76
2023/07/03 06:08:16;;;;;;;11.00;8.70;;;;;;;24.87;61.46;99199.24;105426;1262;60458;-77
2023/07/03 06:10:45;;;;;;;10.30;9.30;;;;;;;24.96;61.32;99203.63;105595;1262;60452;-77
2023/07/03 06:13:13;;;;;;;9.90;8.90;;;;;;;25.01;60.92;99198.11;107705;1262;72819;-78
2023/07/03 06:15:41;;;;;;;9.50;8.60;;;;;;;25.07;60.65;99196.47;106444;1268;69182;-79
2023/07/03 06:18:09;;;;;;;9.70;8.80;;;;;;;25.13;60.26;99195.52;105680;1263;71439;-81
2023/07/03 06:20:37;;;;;;;10.00;8.90;;;;;;;25.21;60.10;99196.80;106041;1262;60441;-82
2023/07/03 06:23:05;;;;;;;11.40;8.60;;;;;;;25.29;59.82;99194.45;106307;1262;60426;-81
2023/07/03 06:25:33;;;;;;;8.90;8.00;;;;;;;25.38;59.84;99198.06;106265;1262;72599;-81
2023/07/03 06:28:01;;;;;;;8.80;7.80;;;;;;;25.46;59.30;99197.20;105901;1267;69296;-83
2023/07/03 06:30:28;;;;;;;8.90;8.00;;;;;;;25.57;58.61;99201.66;105921;1265;71555;-83
2023/07/03 06:32:56;;;;;;;9.90;8.70;;;;;;;25.66;58.01;99203.89;105854;1267;60439;-81
2023/07/03 06:35:24;;;;;;;9.20;8.30;;;;;;;25.72;58.11;99206.80;106148;1264;60608;-82
2023/07/03 06:37:53;;;;;;;10.70;8.70;;;;;;;25.80;58.29;99204.41;106122;1262;73925;-82
2023/07/03 06:40:20;;;;;;;9.50;8.50;;;;;;;25.91;58.36;99207.79;106080;1267;69189;-82
2023/07/03 06:42:48;;;;;;;9.30;8.50;;;;;;;25.99;57.84;99206.00;107553;1262;71491;-83
2023/07/03 06:45:19;;;;;;;9.80;8.90;;;;;;;26.08;57.46;99211.38;107563;1262;60480;-82
2023/07/03 06:47:46;;;;;;;9.60;8.10;;;;;;;26.17;57.51;99214.26;105649;1267;59240;-81
2023/07/03 06:50:14;;;;;;;9.00;8.20;;;;;;;26.26;57.24;99216.80;105723;1262;73946;-82
2023/07/03 06:52:42;;;;;;;9.10;8.20;;;;;;;26.34;56.78;99219.07;105959;1262;70102;-82
2023/07/03 06:55:10;;;;;;;9.20;8.30;;;;;;;26.36;56.06;99223.40;106098;1267;71642;-82
2023/07/03 06:57:38;;;;;;;9.10;8.20;;;;;;;26.34;55.77;99220.82;105694;1262;60589;-83
2023/07/03 07:00:06;;;;;;;12.30;8.40;;;;;;;26.32;56.10;99226.87;105530;1262;60366;-85
2023/07/03 07:02:34;;;;;;;8.40;7.70;;;;;;;26.34;55.81;99228.13;105745;1264;72751;-84
2023/07/03 07:05:01;;;;;;;9.30;8.50;;;;;;;26.38;55.90;99229.65;108400;1263;69237;-85
2023/07/03 07:07:30;;;;;;;8.10;7.20;;;;;;;26.44;55.84;99230.20;108767;1263;71532;-82
2023/07/03 07:09:57;;;;;;;10.50;8.20;;;;;;;26.52;55.70;99234.50;108732;1262;58876;-83
2023/07/03 07:12:25;;;;;;;8.70;8.00;;;;;;;26.62;55.82;99233.99;108872;1263;59242;-78
2023/07/03 07:14:53;;;;;;;8.30;7.50;;;;;;;26.72;55.73;99233.64;108791;1263;72624;-83
2023/07/03 07:17:21;;;;;;;8.20;7.40;;;;;;;26.72;55.11;99231.94;107934;1264;68758;-83
2023/07/03 07:19:52;;;;;;;8.60;7.80;;;;;;;26.66;54.81;99234.09;108371;1262;71821;-81
2023/07/03 07:22:19;;;;;;;8.60;7.80;;;;;;;26.59;55.10;99236.68;107271;1264;60467;-84
2023/07/03 07:24:47;;;;;;;8.50;7.60;;;;;;;26.59;55.98;99240.61;106765;1262;60559;-84
2023/07/03 07:27:15;;;;;;;8.50;7.80;;;;;;;26.62;56.26;99242.33;106212;1269;72604;-83
2023/07/03 07:29:42;;;;;;;9.20;7.40;;;;;;;26.59;55.66;99245.13;105898;1264;70516;-85
2023/07/03 07:32:10;;;;;;;9.20;8.30;;;;;;;26.50;55.80;99245.40;105731;1264;72224;-83
2023/07/03 07:34:37;;;;;;;9.10;8.00;;;;;;;26.48;55.92;99249.17;105855;1262;60490;-83
2023/07/03 07:37:05;;;;;;;9.50;7.80;;;;;;;26.45;54.34;99251.33;106098;1262;60452;-84
2023/07/03 07:39:32;;;;;;;7.70;7.00;;;;;;;26.28;54.81;99252.23;106934;1263;75591;-83
2023/07/03 07:42:00;;;;;;;7.80;7.10;;;;;;;26.13;55.55;99257.94;108439;1263;71015;-81
2023/07/03 07:44:29;;;;;;;7.80;7.10;;;;;;;26.11;55.52;99261.66;108773;1263;73540;-82
2023/07/03 07:46:56;;;;;;;7.80;7.00;;;;;;;26.13;54.84;99263.06;108399;1263;60606;-82
2023/07/03 07:49:24;;;;;;;7.50;6.80;;;;;;;26.15;54.47;99261.09;107929;1263;60501;-86
2023/07/03 07:51:52;;;;;;;7.40;6.70;;;;;;;26.19;54.20;99262.69;107452;1264;72700;-84
2023/07/03 07:54:19;;;;;;;6.20;5.70;;;;;;;26.27;53.76;99260.68;107468;1264;69181;-82
2023/07/03 07:56:47;;;;;;;5.70;5.20;;;;;;;26.40;53.49;99256.38;107636;1264;71612;-84
2023/07/03 07:59:15;;;;;;;5.80;5.30;;;;;;;26.56;51.87;99255.98;107408;1262;260316;-86
2023/07/03 08:02:40;;;;;;;5.60;5.10;;;;;;;26.69;50.89;99257.03;104565;1292;599565;-80
2023/07/03 08:05:08;;;;;;;5.90;5.30;;;;;;;26.73;51.22;99259.93;106604;1272;59261;-84
2023/07/03 08:07:36;;;;;;;6.00;5.40;;;;;;;26.81;50.92;99268.37;107337;1267;59285;-84
2023/07/03 08:10:04;;;;;;;6.10;5.60;;;;;;;26.92;50.56;99270.77;106990;1268;70767;-82
2023/07/03 08:12:32;;;;;;;6.10;5.60;;;;;;;27.01;50.35;99269.31;108394;1266;68686;-81
2023/07/03 08:15:03;;;;;;;6.40;5.70;;;;;;;27.17;50.40;99276.08;109265;1256;71420;-81
2023/07/03 08:17:31;;;;;;;5.90;5.40;;;;;;;27.35;50.25;99279.56;107667;1256;526087;-81
2023/07/03 08:19:58;;;;;;;7.20;5.90;;;;;;;27.46;50.16;99280.02;107668;1253;60972;-81
2023/07/03 08:22:26;;;;;;;6.10;5.30;;;;;;;27.57;50.21;99278.42;107980;1254;72232;-82
2023/07/03 08:24:53;;;;;;;5.60;5.10;;;;;;;27.65;50.30;99282.80;109287;1255;68651;-79
2023/07/03 08:27:21;;;;;;;6.70;5.80;;;;;;;27.74;50.32;99280.49;109407;1254;72137;-82
2023/07/03 08:29:48;;;;;;;7.40;5.10;;;;;;;27.79;50.22;99284.42;109166;1254;58792;-84
2023/07/03 08:32:16;;;;;;;6.20;5.70;;;;;;;27.86;49.90;99287.80;109343;1254;58774;-82
2023/07/03 08:34:43;;;;;;;6.80;6.10;;;;;;;27.89;49.55;99286.23;109436;1256;71434;-82
2023/07/03 08:37:36;;;;;;;6.50;6.00;;;;;;;27.98;49.77;99283.09;109423;1254;69214;-81
2023/07/03 08:40:05;;;;;;;7.60;6.70;;;;;;;28.16;49.89;99284.20;109261;1254;71192;-82
2023/07/03 08:42:47;;;;;;;6.80;6.20;;;;;;;28.38;49.18;99287.91;109280;1254;59512;-82
2023/07/03 08:45:15;;;;;;;7.80;6.40;;;;;;;28.52;49.03;99293.99;109326;1254;58851;-84
2023/07/03 08:47:45;;;;;;;7.30;6.60;;;;;;;28.67;49.40;99290.63;109278;1253;72112;-80
2023/07/03 08:50:17;;;;;;;7.70;6.70;;;;;;;28.82;48.96;99292.73;109240;1254;68754;-82
2023/07/03 08:53:03;;;;;;;6.50;5.90;;;;;;;28.92;48.69;99296.88;109213;1254;71504;-83
2023/07/03 08:55:37;;;;;;;7.60;6.90;;;;;;;28.99;48.34;99291.95;109002;1254;59356;-83
2023/07/03 08:58:04;;;;;;;7.70;7.00;;;;;;;29.05;48.50;99291.07;109226;1253;59400;-82
2023/07/03 09:00:39;;;;;;;6.50;5.90;;;;;;;29.13;48.46;99292.73;109271;1253;71480;-82
2023/07/03 09:03:22;;;;;;;6.40;5.80;;;;;;;29.22;48.29;99291.69;109418;1253;68891;-79
2023/07/03 09:06:29;;;;;;;7.20;5.70;;;;;;;29.31;47.29;99287.65;108792;1254;71572;-75
2023/07/03 09:09:17;;;;;;;6.20;5.60;;;;;;;29.44;47.75;99288.58;107371;1257;59523;-72
2023/07/03 09:11:49;;;;;;;7.20;6.60;;;;;;;29.58;47.91;99289.57;107406;1257;59432;-77
2023/07/03 09:14:22;;;;;;;6.70;6.00;;;;;;;29.66;48.23;99290.17;107985;1253;72326;-74
2023/07/03 09:16:50;;;;;;;7.90;6.30;;;;;;;29.62;47.55;99291.02;108656;1253;68901;-75
2023/07/03 09:19:23;;;;;;;12.60;6.20;;;;;;;29.56;47.88;99289.06;108080;1254;71864;-73
2023/07/03 09:21:53;;;;;;;8.60;6.80;;;;;;;29.59;48.44;99288.52;106605;1259;59726;-77
2023/07/03 09:24:37;;;;;;;8.00;6.20;;;;;;;29.65;48.40;99293.08;105908;1255;59836;-75
2023/07/03 09:27:10;;;;;;;7.10;6.50;;;;;;;29.91;48.34;99293.44;105900;1260;73473;-77
2023/07/03 09:29:38;;;;;;;;;;;;;;;30.34;47.37;99292.79;106086;1259;70580;-78
2023/07/03 09:32:05;;;;;;;7.30;6.60;;;;;;;30.85;47.01;99290.26;105780;1257;73599;-76
2023/07/03 09:34:58;;;;;;;6.90;6.20;;;;;;;31.44;46.39;99287.31;106399;1260;60132;-72
2023/07/03 09:37:27;;;;;;;6.60;5.80;;;;;;;32.16;44.95;99284.70;106994;1254;59825;-76
2023/07/03 09:39:55;;;;;;;8.10;6.20;;;;;;;32.57;43.57;99285.19;106472;1254;71408;-76
2023/07/03 09:42:23;;;;;;;6.80;5.60;;;;;;;32.72;42.72;99289.45;106013;1254;68312;-77
2023/07/03 09:44:51;;;;;;;7.90;6.40;;;;;;;32.77;42.30;99288.86;106305;1255;72559;-78
2023/07/03 09:47:28;;;;;;;7.10;6.20;;;;;;;32.79;42.55;99289.91;108419;1254;59618;-76
2023/07/03 09:50:08;;;;;;;7.30;6.20;;;;;;;32.87;42.54;99291.83;108986;1254;62357;-76
2023/07/03 09:52:45;;;;;;;6.00;5.40;;;;;;;33.10;42.42;99289.58;106561;1254;72808;-75
2023/07/03 09:55:33;;;;;;;4.80;4.40;;;;;;;33.58;39.92;99295.63;105874;1254;70302;-77
2023/07/03 09:58:12;;;;;;;6.10;3.90;;;;;;;33.89;38.75;99288.19;105866;1264;71057;-74
2023/07/03 10:00:48;;;;;;;4.00;3.60;;;;;;;34.05;38.32;99282.94;105880;1259;59682;-76
2023/07/03 10:03:24;;;;;;;4.50;4.10;;;;;;;34.14;38.42;99280.23;105766;1254;59955;-77
2023/07/03 10:05:55;;;;;;;4.10;3.80;;;;;;;34.25;37.74;99278.14;105518;1254;71409;-75
2023/07/03 10:08:27;;;;;;;4.10;3.80;;;;;;;34.22;37.36;99282.84;105840;1256;60499;-75
2023/07/03 10:10:59;;;;;;;4.80;4.40;;;;;;;34.14;37.20;99282.34;105809;1254;62813;-75
2023/07/03 10:13:30;;;;;;;4.80;3.90;;;;;;;34.22;37.53;99277.48;105571;1255;59663;-77
2023/07/03 10:15:58;;;;;;;5.10;4.70;;;;;;;34.67;37.05;99271.38;106181;1254;60058;-76
2023/07/03 10:18:33;;;;;;;4.40;4.00;;;;;;;35.41;36.58;99272.11;107484;1253;62837;-76
2023/07/03 10:21:02;;;;;;;4.60;4.10;;;;;;;36.05;35.66;99273.77;108041;1260;60104;-76
2023/07/03 10:23:32;;;;;;;3.40;3.10;;;;;;;35.99;35.49;99275.88;105728;1260;66315;-76
2023/07/03 10:26:10;;;;;;;3.70;3.40;;;;;;;35.39;35.49;99280.80;105843;1259;59810;-75
2023/07/03 10:28:40;;;;;;;3.90;3.60;;;;;;;34.66;36.32;99282.48;105989;1255;59641;-77
2023/07/03 10:31:13;;;;;;;4.30;4.00;;;;;;;34.17;37.22;99284.73;105865;1257;62829;-75
2023/07/03 10:33:46;;;;;;;3.70;3.40;;;;;;;33.80;37.36;99287.76;105849;1254;71483;-75
2023/07/03 10:36:17;;;;;;;3.70;3.40;;;;;;;33.24;38.10;99294.09;105925;1255;72477;-78
2023/07/03 10:38:55;;;;;;;5.40;3.30;;;;;;;32.69;38.41;99296.48;105786;1257;59761;-76
2023/07/03 10:41:34;;;;;;;5.60;3.70;;;;;;;32.42;38.63;99292.42;105721;1259;59500;-78
2023/07/03 10:44:11;;;;;;;4.30;3.70;;;;;;;32.49;39.33;99283.97;105856;1255;73070;-76
2023/07/03 10:46:53;;;;;;;5.60;4.30;;;;;;;33.22;39.28;99279.51;106073;1254;70298;-75
2023/07/03 10:49:33;;;;;;;4.90;4.00;;;;;;;34.09;38.51;99277.59;107423;1254;71402;-75
2023/07/03 10:52:27;;;;;;;4.20;3.80;;;;;;;34.53;37.40;99280.17;107819;1254;59752;-76
2023/07/03 10:55:01;;;;;;;7.40;5.80;;;;;;;34.36;37.48;99278.36;105514;1259;59622;-76
2023/07/03 10:57:38;;;;;;;4.40;4.00;;;;;;;33.90;38.53;99276.33;105976;1255;73371;-76
2023/07/03 11:00:11;;;;;;;4.50;4.10;;;;;;;33.68;39.83;99275.17;105918;1256;68704;-74
2023/07/03 11:03:01;;;;;;;;;;;;;;;33.54;39.76;99275.71;107649;1254;72655;-75
2023/07/03 11:05:34;;;;;;;4.90;4.50;;;;;;;33.33;39.71;99275.98;108463;1254;59397;-74
2023/07/03 11:08:08;;;;;;;3.80;3.40;;;;;;;33.14;39.81;99275.42;107583;1254;61428;-78
2023/07/03 11:11:00;;;;;;;4.00;3.70;;;;;;;32.72;39.53;99280.25;106771;1254;73798;-76
2023/07/03 11:13:32;;;;;;;4.00;3.70;;;;;;;32.16;40.13;99278.39;106922;1254;69422;-77
2023/07/03 11:16:13;;;;;;;4.30;3.90;;;;;;;31.75;40.99;99275.87;106512;1254;72487;-76
2023/07/03 11:19:09;;;;;;;4.80;4.00;;;;;;;31.48;41.56;99278.20;108085;1256;59666;-77
2023/07/03 11:21:51;;;;;;;4.30;3.90;;;;;;;31.33;41.56;99281.67;106699;1254;62343;-75
2023/07/03 11:24:29;;;;;;;4.50;3.90;;;;;;;31.04;41.80;99282.92;105913;1254;76820;-75
2023/07/03 11:27:24;;;;;;;4.70;3.70;;;;;;;30.93;42.78;99277.75;105939;1254;70257;-75
2023/07/03 11:29:55;;;;;;;5.40;4.30;;;;;;;31.39;42.91;99276.52;105910;1258;71620;-75
2023/07/03 11:32:23;;;;;;;4.60;3.80;;;;;;;32.16;43.30;99275.55;105856;1254;61181;-79